Time;durP1;ratioP1;P1;durP2;ratioP2;P2;SDS_P1;SDS_P2;PMS_P1;PMS_P2;Temp;Humidity;BMP_temperature;BMP_pressure;BME280_temperature;BME280_humidity;BME280_pressure;Samples;Min_cycle;Max_cycle;Signal;HPM_P1;HPM_P2
2021/03/28 00:00:14;;;;;;;12.25;2.97;;;;;;;;;;5016973;28;20022;-61
2021/03/28 00:03:01;;;;;;;14.48;2.78;;;;;;;;;;5008956;28;20022;-60
2021/03/28 00:05:28;;;;;;;15.20;3.28;;;;;;;;;;5008114;28;20112;-61
2021/03/28 00:07:55;;;;;;;49.72;5.88;;;;;;;;;;4997753;28;20057;-64
2021/03/28 00:10:25;;;;;;;47.60;4.85;;;;;;;;;;4978336;28;20030;-64
2021/03/28 00:12:59;;;;;;;20.90;3.53;;;;;;;;;;5013827;28;20072;-63
2021/03/28 00:15:28;;;;;;;16.75;3.35;;;;;;;;;;4992842;28;20014;-63
2021/03/28 00:18:05;;;;;;;26.85;3.33;;;;;;;;;;5006565;28;20110;-62
2021/03/28 00:20:34;;;;;;;12.55;3.40;;;;;;;;;;5007554;28;20429;-62
2021/03/28 00:23:07;;;;;;;16.17;3.80;;;;;;;;;;4998221;28;20017;-64
2021/03/28 00:25:37;;;;;;;10.50;3.28;;;;;;;;;;5014744;28;20027;-62
2021/03/28 00:28:21;;;;;;;12.18;3.55;;;;;;;;;;5015633;28;20113;-65
2021/03/28 00:30:49;;;;;;;13.95;3.55;;;;;;;;;;5008718;28;20409;-64
2021/03/28 00:33:22;;;;;;;14.05;2.85;;;;;;;;;;5005913;28;20049;-64
2021/03/28 00:35:55;;;;;;;18.48;3.53;;;;;;;;;;5013751;28;20053;-63
2021/03/28 00:38:27;;;;;;;15.75;3.95;;;;;;;;;;4995424;28;20022;-64
2021/03/28 00:41:08;;;;;;;12.40;3.78;;;;;;;;;;4997419;28;20018;-64
2021/03/28 00:43:54;;;;;;;20.90;4.47;;;;;;;;;;4989387;28;20029;-66
2021/03/28 00:46:44;;;;;;;13.98;3.72;;;;;;;;;;4982725;28;20602;-64
2021/03/28 00:49:21;;;;;;;14.02;3.70;;;;;;;;;;4998692;28;20556;-61
2021/03/28 00:51:50;;;;;;;13.68;3.97;;;;;;;;;;5011285;28;20025;-62
2021/03/28 00:54:18;;;;;;;15.13;3.63;;;;;;;;;;5011127;28;20109;-64
2021/03/28 00:56:47;;;;;;;10.50;3.70;;;;;;;;;;5014280;28;20029;-65
2021/03/28 00:59:19;;;;;;;17.00;4.40;;;;;;;;;;5008051;28;20033;-65
2021/03/28 01:01:49;;;;;;;24.73;4.25;;;;;;;;;;5007459;28;20042;-66
2021/03/28 01:04:39;;;;;;;18.48;4.80;;;;;;;;;;5014582;28;20549;-62
2021/03/28 01:07:18;;;;;;;16.95;4.70;;;;;;;;;;5009983;28;20421;-64
2021/03/28 01:10:03;;;;;;;20.98;4.75;;;;;;;;;;5014229;28;20362;-62
2021/03/28 01:12:50;;;;;;;27.92;5.03;;;;;;;;;;5005153;28;20029;-61
2021/03/28 01:15:20;;;;;;;25.55;5.07;;;;;;;;;;5015300;28;20032;-65
2021/03/28 01:18:16;;;;;;;15.65;4.38;;;;;;;;;;5015363;28;20038;-65
2021/03/28 01:21:01;;;;;;;24.88;5.65;;;;;;;;;;4997988;28;20034;-65
2021/03/28 01:23:32;;;;;;;17.02;5.18;;;;;;;;;;5014886;28;20374;-65
2021/03/28 01:26:03;;;;;;;17.25;5.93;;;;;;;;;;4998053;28;20398;-63
2021/03/28 01:28:32;;;;;;;17.80;5.60;;;;;;;;;;5006165;28;20018;-61
2021/03/28 01:31:05;;;;;;;20.67;5.70;;;;;;;;;;4997441;28;20033;-64
2021/03/28 01:33:32;;;;;;;21.70;6.05;;;;;;;;;;5004531;28;20053;-62
2021/03/28 01:36:13;;;;;;;22.20;5.65;;;;;;;;;;5011835;28;20021;-64
2021/03/28 01:38:45;;;;;;;25.10;5.38;;;;;;;;;;5014428;28;20029;-62
2021/03/28 01:41:19;;;;;;;16.70;5.78;;;;;;;;;;5013083;28;20120;-65
2021/03/28 01:44:02;;;;;;;18.08;5.30;;;;;;;;;;5014859;28;20028;-62
2021/03/28 01:46:44;;;;;;;23.20;5.50;;;;;;;;;;5013586;28;20549;-62
2021/03/28 01:49:24;;;;;;;19.97;5.77;;;;;;;;;;5006445;28;20022;-63
2021/03/28 01:52:06;;;;;;;18.58;5.30;;;;;;;;;;5007043;28;20061;-63
2021/03/28 01:54:39;;;;;;;20.15;4.95;;;;;;;;;;5012383;28;20462;-62
2021/03/28 01:57:16;;;;;;;16.60;5.43;;;;;;;;;;5002099;28;20418;-65
2021/03/28 02:00:01;;;;;;;17.25;5.13;;;;;;;;;;5013752;28;20022;-62
2021/03/28 02:02:35;;;;;;;14.05;5.05;;;;;;;;;;5002648;28;20038;-63
2021/03/28 02:05:20;;;;;;;21.02;4.85;;;;;;;;;;5011185;28;20026;-62
2021/03/28 02:07:56;;;;;;;16.75;5.47;;;;;;;;;;5005761;28;20375;-64
2021/03/28 02:10:46;;;;;;;18.25;5.53;;;;;;;;;;4982900;28;20445;-63
2021/03/28 02:13:13;;;;;;;14.43;5.68;;;;;;;;;;5006714;28;20044;-67
2021/03/28 02:16:19;;;;;;;16.05;4.63;;;;;;;;;;5014572;28;20028;-64
2021/03/28 02:18:54;;;;;;;13.13;4.72;;;;;;;;;;4916947;29;20053;-68
2021/03/28 02:21:21;;;;;;;19.33;5.72;;;;;;;;;;4923065;29;20065;-66
2021/03/28 02:23:51;;;;;;;16.00;5.13;;;;;;;;;;4964534;28;20442;-66
2021/03/28 02:26:37;;;;;;;14.80;4.80;;;;;;;;;;5001970;28;20156;-61
2021/03/28 02:29:10;;;;;;;13.05;5.07;;;;;;;;;;5013313;28;20474;-64
2021/03/28 02:31:46;;;;;;;13.52;5.18;;;;;;;;;;5013740;28;20525;-65
2021/03/28 02:34:25;;;;;;;17.52;5.47;;;;;;;;;;4999786;28;20065;-64
2021/03/28 02:37:09;;;;;;;16.63;5.32;;;;;;;;;;5014161;28;20026;-64
2021/03/28 02:39:39;;;;;;;13.32;5.00;;;;;;;;;;5013618;28;20026;-64
2021/03/28 02:42:11;;;;;;;19.45;5.28;;;;;;;;;;4995821;28;20386;-65
2021/03/28 02:44:56;;;;;;;17.48;5.00;;;;;;;;;;5013900;28;20517;-64
2021/03/28 02:47:33;;;;;;;15.73;5.10;;;;;;;;;;5013550;28;20026;-62
2021/03/28 02:50:10;;;;;;;18.50;5.03;;;;;;;;;;4999623;28;20029;-63
2021/03/28 02:52:49;;;;;;;14.98;4.85;;;;;;;;;;4999646;28;20030;-64
2021/03/28 02:55:22;;;;;;;12.93;5.03;;;;;;;;;;5001303;28;20030;-65
2021/03/28 02:58:03;;;;;;;12.90;4.68;;;;;;;;;;5013763;28;20105;-63
2021/03/28 03:00:39;;;;;;;13.70;4.95;;;;;;;;;;5013342;28;20398;-64
2021/03/28 03:03:19;;;;;;;11.93;5.03;;;;;;;;;;5013367;28;20029;-64
2021/03/28 03:06:04;;;;;;;14.80;5.03;;;;;;;;;;5013401;28;20348;-64
2021/03/28 03:08:31;;;;;;;13.55;4.60;;;;;;;;;;5012653;28;20030;-62
2021/03/28 03:11:13;;;;;;;15.43;4.63;;;;;;;;;;5013105;28;20498;-65
2021/03/28 03:13:43;;;;;;;11.20;3.92;;;;;;;;;;5006022;28;20034;-64
2021/03/28 03:16:10;;;;;;;10.63;4.68;;;;;;;;;;5013359;28;20030;-63
2021/03/28 03:18:46;;;;;;;12.63;4.53;;;;;;;;;;5005536;28;20046;-65
2021/03/28 03:21:19;;;;;;;19.60;4.93;;;;;;;;;;5012479;28;20025;-66
2021/03/28 03:24:04;;;;;;;10.68;4.35;;;;;;;;;;5012377;28;20510;-62
2021/03/28 03:27:01;;;;;;;16.42;4.80;;;;;;;;;;4993993;28;20030;-65
2021/03/28 03:29:32;;;;;;;14.70;4.50;;;;;;;;;;5002374;28;20118;-64
2021/03/28 03:32:18;;;;;;;13.18;4.65;;;;;;;;;;5011922;28;20457;-66
2021/03/28 03:34:53;;;;;;;9.15;3.90;;;;;;;;;;5000231;28;20485;-64
2021/03/28 03:37:38;;;;;;;15.25;4.10;;;;;;;;;;5012612;28;20033;-65
2021/03/28 03:40:31;;;;;;;12.00;4.05;;;;;;;;;;5012267;28;20072;-61
2021/03/28 03:43:01;;;;;;;8.93;4.28;;;;;;;;;;5008482;28;20088;-60
2021/03/28 03:45:42;;;;;;;10.98;4.22;;;;;;;;;;5010838;28;20500;-60
2021/03/28 03:48:12;;;;;;;11.20;4.30;;;;;;;;;;5008121;28;20061;-62
2021/03/28 03:50:57;;;;;;;12.18;3.97;;;;;;;;;;5010305;28;20022;-59
2021/03/28 03:53:24;;;;;;;11.75;4.13;;;;;;;;;;4989388;28;20088;-61
2021/03/28 03:55:58;;;;;;;9.25;4.50;;;;;;;;;;5002861;28;20026;-61
2021/03/28 03:58:34;;;;;;;9.43;4.22;;;;;;;;;;4992673;28;20050;-60
2021/03/28 04:01:19;;;;;;;10.85;4.50;;;;;;;;;;5010073;28;20485;-60
2021/03/28 04:04:06;;;;;;;10.18;4.30;;;;;;;;;;4992736;28;20030;-60
2021/03/28 04:06:51;;;;;;;13.43;3.92;;;;;;;;;;5172479;22;23205;-60
2021/03/28 04:09:27;;;;;;;12.80;4.65;;;;;;;;;;4980335;28;20080;-60
2021/03/28 04:11:54;;;;;;;8.13;4.18;;;;;;;;;;5011753;28;20475;-63
2021/03/28 04:14:21;;;;;;;7.50;3.60;;;;;;;;;;5026695;28;20112;-61
2021/03/28 04:17:07;;;;;;;9.63;3.90;;;;;;;;;;5030774;28;20026;-60
2021/03/28 04:19:36;;;;;;;10.05;4.15;;;;;;;;;;5007812;28;20061;-60
2021/03/28 04:22:27;;;;;;;10.35;4.35;;;;;;;;;;5029703;28;20024;-60
2021/03/28 04:25:06;;;;;;;11.70;3.83;;;;;;;;;;5019747;28;20090;-60
2021/03/28 04:27:50;;;;;;;10.30;4.15;;;;;;;;;;5019360;28;20026;-59
2021/03/28 04:30:35;;;;;;;9.65;4.32;;;;;;;;;;5021584;28;20030;-59
2021/03/28 04:33:11;;;;;;;12.20;4.22;;;;;;;;;;5032913;28;20025;-60
2021/03/28 04:35:56;;;;;;;8.80;4.22;;;;;;;;;;5033583;28;20108;-60
2021/03/28 04:38:23;;;;;;;8.90;4.05;;;;;;;;;;5032783;28;20092;-59
2021/03/28 04:41:13;;;;;;;9.35;3.95;;;;;;;;;;5033453;28;20377;-59
2021/03/28 04:43:46;;;;;;;10.07;3.78;;;;;;;;;;4990253;28;20037;-60
2021/03/28 04:46:32;;;;;;;8.20;3.92;;;;;;;;;;5013514;28;20091;-59
2021/03/28 04:49:16;;;;;;;7.72;3.88;;;;;;;;;;5032283;28;20022;-59
2021/03/28 04:52:06;;;;;;;7.55;3.58;;;;;;;;;;5033282;28;20022;-59
2021/03/28 04:54:48;;;;;;;8.48;3.78;;;;;;;;;;5032733;28;20041;-59
2021/03/28 04:57:15;;;;;;;6.22;3.75;;;;;;;;;;5033272;28;20034;-59
2021/03/28 04:59:42;;;;;;;8.85;4.10;;;;;;;;;;5032779;28;20030;-59
2021/03/28 05:02:27;;;;;;;9.43;3.78;;;;;;;;;;5032995;28;20025;-59
2021/03/28 05:04:57;;;;;;;10.18;3.55;;;;;;;;;;5033082;28;20109;-59
2021/03/28 05:07:33;;;;;;;8.30;4.05;;;;;;;;;;5032821;28;20046;-59
2021/03/28 05:10:19;;;;;;;7.63;3.92;;;;;;;;;;5032987;28;20022;-59
2021/03/28 05:12:46;;;;;;;7.55;3.85;;;;;;;;;;5032935;28;20041;-59
2021/03/28 05:15:24;;;;;;;7.47;3.50;;;;;;;;;;5033203;28;20021;-58
2021/03/28 05:17:59;;;;;;;9.73;3.70;;;;;;;;;;5032962;28;20463;-59
2021/03/28 05:20:41;;;;;;;7.07;3.45;;;;;;;;;;5032546;28;20131;-59
2021/03/28 05:23:11;;;;;;;10.50;3.35;;;;;;;;;;5032607;28;20049;-59
2021/03/28 05:26:03;;;;;;;7.63;3.90;;;;;;;;;;5032903;28;20057;-59
2021/03/28 05:28:36;;;;;;;8.20;3.50;;;;;;;;;;5032512;28;20029;-59
2021/03/28 05:31:06;;;;;;;9.88;3.88;;;;;;;;;;5032411;28;20085;-59
2021/03/28 05:33:53;;;;;;;5.38;3.28;;;;;;;;;;5032362;28;20068;-59
2021/03/28 05:36:24;;;;;;;6.47;3.65;;;;;;;;;;5032782;28;20083;-58
2021/03/28 05:39:21;;;;;;;6.75;3.60;;;;;;;;;;5032420;28;20079;-59
2021/03/28 05:42:00;;;;;;;8.20;3.78;;;;;;;;;;4974370;28;20517;-59
2021/03/28 05:44:26;;;;;;;7.55;3.90;;;;;;;;;;5032013;28;20026;-59
2021/03/28 05:47:03;;;;;;;6.82;3.58;;;;;;;;;;4998302;28;20025;-59
2021/03/28 05:49:50;;;;;;;6.95;3.53;;;;;;;;;;4991197;28;20025;-60
2021/03/28 05:52:28;;;;;;;7.38;3.33;;;;;;;;;;4991899;28;20025;-59
2021/03/28 05:55:14;;;;;;;6.97;3.53;;;;;;;;;;5006595;28;20076;-59
2021/03/28 05:57:59;;;;;;;8.35;3.25;;;;;;;;;;5023180;28;20032;-59
2021/03/28 06:00:33;;;;;;;6.22;3.17;;;;;;;;;;5031455;28;20053;-59
2021/03/28 06:03:19;;;;;;;5.72;3.38;;;;;;;;;;5018033;28;20021;-59
2021/03/28 06:06:04;;;;;;;7.60;3.70;;;;;;;;;;5031297;28;20013;-59
2021/03/28 06:08:49;;;;;;;6.43;3.45;;;;;;;;;;5031577;28;20103;-59
2021/03/28 06:11:34;;;;;;;7.07;3.40;;;;;;;;;;5031221;28;20026;-59
2021/03/28 06:14:19;;;;;;;5.43;3.10;;;;;;;;;;5031871;28;20033;-59
2021/03/28 06:17:04;;;;;;;6.75;3.33;;;;;;;;;;5030462;28;20034;-59
2021/03/28 06:19:43;;;;;;;7.32;3.50;;;;;;;;;;5032028;28;20022;-59
2021/03/28 06:22:24;;;;;;;6.97;3.35;;;;;;;;;;5030451;28;20106;-59
2021/03/28 06:25:09;;;;;;;4.70;3.22;;;;;;;;;;5031422;28;20036;-59
2021/03/28 06:27:55;;;;;;;5.60;3.22;;;;;;;;;;5028428;28;20554;-58
2021/03/28 06:30:25;;;;;;;5.38;2.75;;;;;;;;;;5031261;28;20033;-59
2021/03/28 06:33:01;;;;;;;5.75;3.08;;;;;;;;;;5031282;28;20462;-59
2021/03/28 06:35:34;;;;;;;5.18;3.05;;;;;;;;;;5031766;28;20102;-60
2021/03/28 06:38:04;;;;;;;3.88;3.00;;;;;;;;;;5030458;28;20393;-60
2021/03/28 06:40:50;;;;;;;5.47;3.03;;;;;;;;;;5031409;28;20100;-60
2021/03/28 06:43:26;;;;;;;6.40;3.42;;;;;;;;;;5031098;28;20507;-60
2021/03/28 06:46:04;;;;;;;5.40;3.08;;;;;;;;;;5031437;28;20075;-60
2021/03/28 06:48:37;;;;;;;6.40;3.08;;;;;;;;;;5030367;28;20084;-60
2021/03/28 06:51:22;;;;;;;4.75;3.40;;;;;;;;;;5031206;28;20048;-60
2021/03/28 06:54:14;;;;;;;5.57;3.20;;;;;;;;;;5030941;28;20369;-60
2021/03/28 06:56:48;;;;;;;6.43;3.25;;;;;;;;;;5031260;28;20076;-60
2021/03/28 06:59:17;;;;;;;6.03;3.10;;;;;;;;;;5030750;28;20037;-60
2021/03/28 07:02:00;;;;;;;6.03;3.15;;;;;;;;;;5031170;28;20056;-60
2021/03/28 07:04:46;;;;;;;4.75;3.00;;;;;;;;;;5030784;28;20377;-60
2021/03/28 07:07:21;;;;;;;5.32;2.90;;;;;;;;;;5030929;28;20493;-60
2021/03/28 07:09:48;;;;;;;7.28;3.15;;;;;;;;;;5030929;28;20029;-60
2021/03/28 07:12:35;;;;;;;5.38;2.95;;;;;;;;;;5030849;28;20119;-60
2021/03/28 07:15:20;;;;;;;6.47;3.17;;;;;;;;;;4990369;28;20046;-60
2021/03/28 07:17:59;;;;;;;5.88;3.00;;;;;;;;;;5030173;28;20021;-60
2021/03/28 07:20:46;;;;;;;5.22;3.03;;;;;;;;;;5030684;28;20139;-60
2021/03/28 07:23:19;;;;;;;5.65;3.05;;;;;;;;;;5031005;28;20359;-60
2021/03/28 07:25:51;;;;;;;4.25;2.72;;;;;;;;;;5030476;28;20044;-59
2021/03/28 07:28:36;;;;;;;6.13;3.30;;;;;;;;;;5031002;28;20481;-60
2021/03/28 07:31:12;;;;;;;5.40;3.20;;;;;;;;;;5013203;28;20024;-60
2021/03/28 07:34:08;;;;;;;6.75;3.60;;;;;;;;;;5030698;28;20029;-59
2021/03/28 07:36:53;;;;;;;4.60;3.20;;;;;;;;;;5031043;28;20067;-60
2021/03/28 07:39:26;;;;;;;5.05;3.10;;;;;;;;;;5030772;28;20037;-60
2021/03/28 07:41:56;;;;;;;4.70;2.75;;;;;;;;;;5034876;28;20057;-60
2021/03/28 07:44:38;;;;;;;4.35;2.75;;;;;;;;;;5034273;28;20021;-60
2021/03/28 07:47:05;;;;;;;6.03;3.05;;;;;;;;;;5034819;28;20487;-60
2021/03/28 07:49:42;;;;;;;5.18;2.97;;;;;;;;;;5034291;28;20092;-60
2021/03/28 07:52:12;;;;;;;4.10;2.75;;;;;;;;;;5034483;28;20488;-60
2021/03/28 07:54:40;;;;;;;4.75;2.60;;;;;;;;;;5034207;28;20033;-59
2021/03/28 07:57:33;;;;;;;5.25;2.90;;;;;;;;;;5034567;28;20013;-60
2021/03/28 08:00:00;;;;;;;4.28;2.85;;;;;;;;;;5013480;28;20432;-60
2021/03/28 08:02:36;;;;;;;5.53;2.70;;;;;;;;;;5034173;28;20021;-60
2021/03/28 08:05:21;;;;;;;5.32;3.05;;;;;;;;;;5034036;28;20029;-60
2021/03/28 08:07:52;;;;;;;8.35;2.67;;;;;;;;;;5033583;28;20137;-60
2021/03/28 08:10:25;;;;;;;4.70;2.72;;;;;;;;;;5033500;28;20049;-60
2021/03/28 08:12:58;;;;;;;4.15;2.55;;;;;;;;;;5034219;28;20022;-60
2021/03/28 08:15:31;;;;;;;3.33;2.40;;;;;;;;;;5033775;28;20032;-60
2021/03/28 08:18:18;;;;;;;5.53;2.85;;;;;;;;;;5033986;28;20504;-60
2021/03/28 08:20:45;;;;;;;5.50;2.72;;;;;;;;;;5033742;28;20033;-60
2021/03/28 08:23:30;;;;;;;5.57;2.80;;;;;;;;;;5033281;28;20022;-60
2021/03/28 08:26:15;;;;;;;4.47;2.70;;;;;;;;;;5034135;28;20417;-60
2021/03/28 08:28:48;;;;;;;4.22;2.40;;;;;;;;;;5033802;28;20171;-60
2021/03/28 08:31:21;;;;;;;4.22;2.58;;;;;;;;;;5033820;28;20096;-59
2021/03/28 08:34:06;;;;;;;4.07;2.53;;;;;;;;;;5032831;28;20072;-60
2021/03/28 08:36:47;;;;;;;3.88;2.47;;;;;;;;;;5033508;28;20053;-60
2021/03/28 08:39:14;;;;;;;3.47;2.20;;;;;;;;;;5015597;28;20033;-59
2021/03/28 08:41:50;;;;;;;3.55;2.28;;;;;;;;;;5033566;28;20022;-60
2021/03/28 08:44:35;;;;;;;5.43;3.00;;;;;;;;;;5033271;28;20416;-60
2021/03/28 08:47:21;;;;;;;3.20;2.40;;;;;;;;;;5033743;28;20036;-60
2021/03/28 08:49:47;;;;;;;5.95;2.80;;;;;;;;;;5033210;28;20552;-60
2021/03/28 08:52:34;;;;;;;3.57;2.60;;;;;;;;;;5032707;28;20036;-60
2021/03/28 08:55:20;;;;;;;4.60;2.40;;;;;;;;;;4985700;28;20060;-60
2021/03/28 08:58:06;;;;;;;4.85;2.38;;;;;;;;;;5033663;28;20105;-60
2021/03/28 09:00:35;;;;;;;3.88;2.15;;;;;;;;;;5032894;28;20513;-59
2021/03/28 09:03:02;;;;;;;4.05;2.15;;;;;;;;;;5032953;28;20036;-59
2021/03/28 09:05:32;;;;;;;3.80;2.58;;;;;;;;;;5032597;28;20504;-60
2021/03/28 09:08:05;;;;;;;4.57;2.72;;;;;;;;;;5033112;28;20053;-60
2021/03/28 09:10:36;;;;;;;4.10;2.30;;;;;;;;;;5032473;28;20091;-60
2021/03/28 09:13:03;;;;;;;4.00;2.58;;;;;;;;;;5032772;28;20037;-60
2021/03/28 09:15:39;;;;;;;5.35;2.53;;;;;;;;;;5033126;28;20021;-59
2021/03/28 09:18:18;;;;;;;2.92;2.03;;;;;;;;;;5033009;28;20021;-60
2021/03/28 09:20:49;;;;;;;3.85;2.15;;;;;;;;;;5033077;28;20112;-59
2021/03/28 09:23:16;;;;;;;5.30;2.75;;;;;;;;;;5032283;28;20018;-60
2021/03/28 09:25:58;;;;;;;4.28;2.40;;;;;;;;;;5032901;28;20557;-60
2021/03/28 09:28:31;;;;;;;3.50;2.78;;;;;;;;;;5032206;28;20029;-60
2021/03/28 09:31:07;;;;;;;5.20;2.63;;;;;;;;;;5032937;28;20044;-60
2021/03/28 09:34:03;;;;;;;3.33;2.00;;;;;;;;;;5031954;28;20072;-60
2021/03/28 09:36:36;;;;;;;4.47;2.55;;;;;;;;;;4978882;28;20035;-60
2021/03/28 09:39:03;;;;;;;3.53;2.25;;;;;;;;;;5032090;28;20033;-60
2021/03/28 09:41:36;;;;;;;4.30;2.35;;;;;;;;;;5032685;28;20037;-59
2021/03/28 09:44:03;;;;;;;4.10;2.40;;;;;;;;;;5031900;28;20030;-60
2021/03/28 09:46:48;;;;;;;2.78;2.10;;;;;;;;;;5032410;28;20645;-59
2021/03/28 09:49:25;;;;;;;3.15;2.05;;;;;;;;;;5031948;28;20017;-60
2021/03/28 09:51:52;;;;;;;4.32;2.55;;;;;;;;;;5032332;28;20026;-60
2021/03/28 09:54:19;;;;;;;3.33;2.10;;;;;;;;;;5031539;28;20116;-60
2021/03/28 09:56:51;;;;;;;3.15;2.15;;;;;;;;;;5032220;28;20017;-60
2021/03/28 09:59:24;;;;;;;4.35;2.63;;;;;;;;;;5032241;28;20033;-59
2021/03/28 10:02:02;;;;;;;3.78;2.17;;;;;;;;;;5031216;28;20044;-59
2021/03/28 10:04:55;;;;;;;3.10;2.05;;;;;;;;;;5031700;28;20025;-59
2021/03/28 10:07:22;;;;;;;;;;;;;;;;;;5011452;28;20065;-60
2021/03/28 10:09:51;;;;;;;3.55;2.03;;;;;;;;;;5032049;28;19919;-60
2021/03/28 10:12:27;;;;;;;2.70;2.17;;;;;;;;;;5031477;28;20018;-60
2021/03/28 10:15:00;;;;;;;3.45;2.10;;;;;;;;;;5031783;28;20029;-59
2021/03/28 10:17:45;;;;;;;4.18;2.08;;;;;;;;;;5031281;28;20022;-60
2021/03/28 10:20:31;;;;;;;3.38;2.15;;;;;;;;;;5031817;28;20515;-60
2021/03/28 10:23:08;;;;;;;2.20;1.90;;;;;;;;;;5031312;28;20049;-60
2021/03/28 10:25:38;;;;;;;3.47;2.20;;;;;;;;;;5031632;28;20104;-60
2021/03/28 10:28:11;;;;;;;7.43;3.08;;;;;;;;;;5030976;28;20377;-60
2021/03/28 10:30:55;;;;;;;3.17;1.95;;;;;;;;;;5031474;28;20563;-60
2021/03/28 10:33:22;;;;;;;3.38;1.98;;;;;;;;;;5013364;28;20417;-60
2021/03/28 10:35:52;;;;;;;4.30;1.90;;;;;;;;;;5031380;28;20591;-60
2021/03/28 10:38:22;;;;;;;2.97;2.17;;;;;;;;;;5031106;28;20036;-60
2021/03/28 10:41:12;;;;;;;3.08;2.20;;;;;;;;;;5031694;28;20036;-60
2021/03/28 10:43:39;;;;;;;3.20;1.95;;;;;;;;;;5020719;28;20103;-60
2021/03/28 10:46:29;;;;;;;3.72;2.08;;;;;;;;;;5031351;28;20025;-60
2021/03/28 10:49:08;;;;;;;2.90;1.92;;;;;;;;;;4994349;28;20025;-60
2021/03/28 10:51:53;;;;;;;3.22;2.03;;;;;;;;;;5031704;28;20049;-59
2021/03/28 10:54:55;;;;;;;3.05;1.70;;;;;;;;;;5031060;28;20041;-59
2021/03/28 10:57:22;;;;;;;2.90;2.13;;;;;;;;;;4955132;28;20118;-60
2021/03/28 10:59:49;;;;;;;1.98;1.70;;;;;;;;;;4952105;28;20539;-59
2021/03/28 11:02:25;;;;;;;3.10;1.98;;;;;;;;;;4970305;28;20031;-60
2021/03/28 11:04:55;;;;;;;2.70;1.92;;;;;;;;;;4979210;28;20116;-59
2021/03/28 11:07:40;;;;;;;3.80;2.25;;;;;;;;;;5011150;28;20046;-59
2021/03/28 11:10:36;;;;;;;2.70;1.85;;;;;;;;;;5011578;28;20378;-59
2021/03/28 11:13:06;;;;;;;2.47;1.77;;;;;;;;;;5002460;28;20050;-60
2021/03/28 11:15:52;;;;;;;3.08;2.00;;;;;;;;;;5009874;28;20108;-59
2021/03/28 11:18:31;;;;;;;2.88;1.83;;;;;;;;;;4999360;28;20091;-59
2021/03/28 11:21:05;;;;;;;3.22;1.80;;;;;;;;;;4998648;28;20021;-59
2021/03/28 11:23:44;;;;;;;3.53;1.88;;;;;;;;;;5027923;28;20397;-59
2021/03/28 11:26:11;;;;;;;3.90;2.00;;;;;;;;;;5016617;28;20029;-59
2021/03/28 11:28:38;;;;;;;3.00;1.80;;;;;;;;;;5034942;28;20022;-60
2021/03/28 11:31:11;;;;;;;3.25;2.00;;;;;;;;;;5035304;28;20553;-60
2021/03/28 11:34:07;;;;;;;3.08;1.90;;;;;;;;;;5034268;28;20045;-60
2021/03/28 11:36:34;;;;;;;2.63;1.63;;;;;;;;;;5018332;28;20455;-59
2021/03/28 11:39:13;;;;;;;2.58;1.73;;;;;;;;;;5034401;28;20084;-59
2021/03/28 11:41:43;;;;;;;3.50;2.25;;;;;;;;;;5034861;28;20072;-60
2021/03/28 11:44:17;;;;;;;2.00;1.63;;;;;;;;;;5034509;28;20068;-60
2021/03/28 11:46:56;;;;;;;2.17;1.65;;;;;;;;;;5033940;28;20472;-60
2021/03/28 11:49:26;;;;;;;3.35;2.05;;;;;;;;;;5034408;28;20416;-59
2021/03/28 11:51:53;;;;;;;3.45;1.58;;;;;;;;;;5034661;28;20381;-59
2021/03/28 11:54:22;;;;;;;2.90;1.50;;;;;;;;;;5034381;28;20037;-60
2021/03/28 11:57:03;;;;;;;3.13;1.73;;;;;;;;;;5034457;28;20452;-59
2021/03/28 11:59:36;;;;;;;4.20;1.65;;;;;;;;;;5034080;28;20034;-59
2021/03/28 12:02:02;;;;;;;;;;;;;;;;;;5034466;28;20057;-59
2021/03/28 12:04:34;;;;;;;3.58;1.45;;;;;;;;;;5033678;28;19905;-59
2021/03/28 12:07:15;;;;;;;2.00;1.42;;;;;;;;;;5033894;28;20124;-60
2021/03/28 12:09:44;;;;;;;1.92;1.40;;;;;;;;;;5033941;28;20034;-59
2021/03/28 12:12:16;;;;;;;2.95;1.55;;;;;;;;;;5034297;28;20504;-60
2021/03/28 12:14:43;;;;;;;3.10;1.40;;;;;;;;;;5034025;28;20065;-59
2021/03/28 12:17:10;;;;;;;2.47;1.42;;;;;;;;;;5033143;28;20026;-59
2021/03/28 12:19:43;;;;;;;3.60;1.80;;;;;;;;;;5034138;28;20079;-59
2021/03/28 12:22:15;;;;;;;3.20;1.80;;;;;;;;;;5033565;28;20032;-59
2021/03/28 12:24:42;;;;;;;;;;;;;;;;;;5033935;28;20021;-59
2021/03/28 12:27:22;;;;;;;2.08;1.55;;;;;;;;;;5032556;28;19905;-59
2021/03/28 12:29:50;;;;;;;3.22;1.58;;;;;;;;;;5034301;28;20485;-59
2021/03/28 12:32:35;;;;;;;2.92;1.60;;;;;;;;;;5033462;28;20060;-60
2021/03/28 12:35:13;;;;;;;2.35;1.40;;;;;;;;;;5033652;28;20112;-59
2021/03/28 12:37:41;;;;;;;2.45;1.45;;;;;;;;;;5033155;28;20029;-59
2021/03/28 12:40:23;;;;;;;2.40;1.50;;;;;;;;;;5033844;28;20385;-59
2021/03/28 12:42:50;;;;;;;2.42;1.50;;;;;;;;;;5033079;28;20040;-58
2021/03/28 12:45:18;;;;;;;3.72;1.30;;;;;;;;;;5034001;28;20051;-60
2021/03/28 12:47:50;;;;;;;3.00;1.67;;;;;;;;;;5033378;28;20030;-59
2021/03/28 12:50:17;;;;;;;1.67;1.20;;;;;;;;;;5032812;28;20367;-59
2021/03/28 12:52:46;;;;;;;3.08;1.80;;;;;;;;;;5033345;28;20053;-59
2021/03/28 12:55:25;;;;;;;2.13;1.27;;;;;;;;;;5033074;28;20030;-59
2021/03/28 12:57:54;;;;;;;2.15;1.48;;;;;;;;;;5033157;28;20018;-59
2021/03/28 13:00:27;;;;;;;1.45;1.20;;;;;;;;;;5029109;28;20033;-60
2021/03/28 13:02:55;;;;;;;2.33;1.70;;;;;;;;;;5013621;28;20069;-60
2021/03/28 13:05:38;;;;;;;2.10;1.40;;;;;;;;;;5012723;28;20057;-59
2021/03/28 13:08:11;;;;;;;3.33;1.30;;;;;;;;;;5013160;28;20694;-60
2021/03/28 13:10:40;;;;;;;2.05;1.60;;;;;;;;;;5011526;28;20030;-59
2021/03/28 13:13:16;;;;;;;6.88;1.40;;;;;;;;;;5019257;28;20512;-59
2021/03/28 13:15:53;;;;;;;3.20;1.60;;;;;;;;;;5021640;28;20600;-59
2021/03/28 13:18:33;;;;;;;2.35;1.40;;;;;;;;;;5026373;28;20511;-61
2021/03/28 13:21:18;;;;;;;1.73;1.30;;;;;;;;;;5003392;28;20033;-59
2021/03/28 13:23:48;;;;;;;1.73;1.10;;;;;;;;;;4977008;28;20164;-60
2021/03/28 13:26:20;;;;;;;1.65;1.40;;;;;;;;;;5025725;28;20048;-59
2021/03/28 13:28:58;;;;;;;2.25;1.50;;;;;;;;;;5004780;28;20026;-59
2021/03/28 13:31:38;;;;;;;2.58;1.25;;;;;;;;;;4992974;28;20069;-59
2021/03/28 13:34:25;;;;;;;2.05;1.20;;;;;;;;;;5025656;28;20501;-59
2021/03/28 13:37:01;;;;;;;3.05;1.40;;;;;;;;;;5009079;28;20040;-59
2021/03/28 13:39:29;;;;;;;2.55;1.70;;;;;;;;;;5016848;28;20017;-59
2021/03/28 13:41:59;;;;;;;4.13;1.50;;;;;;;;;;5022780;28;20055;-59
2021/03/28 13:44:28;;;;;;;1.30;1.10;;;;;;;;;;5024975;28;20508;-59
2021/03/28 13:46:57;;;;;;;3.30;1.70;;;;;;;;;;5019962;28;20053;-59
2021/03/28 13:49:27;;;;;;;2.45;1.60;;;;;;;;;;5022023;28;20010;-59
2021/03/28 13:52:14;;;;;;;3.33;1.55;;;;;;;;;;5027529;28;20025;-59
2021/03/28 13:54:42;;;;;;;2.53;1.33;;;;;;;;;;5026241;28;20041;-59
2021/03/28 13:57:14;;;;;;;2.97;1.63;;;;;;;;;;5026969;28;20087;-59
2021/03/28 13:59:57;;;;;;;3.33;1.35;;;;;;;;;;5022839;28;20021;-58
2021/03/28 14:02:25;;;;;;;2.50;1.45;;;;;;;;;;5023155;28;20025;-59
2021/03/28 14:04:54;;;;;;;2.38;1.55;;;;;;;;;;5015595;28;20156;-59
2021/03/28 14:07:27;;;;;;;3.83;1.60;;;;;;;;;;4994167;28;20046;-59
2021/03/28 14:10:06;;;;;;;2.25;1.35;;;;;;;;;;5021115;28;20037;-60
2021/03/28 14:12:33;;;;;;;1.95;1.30;;;;;;;;;;5017944;28;20026;-59
2021/03/28 14:15:16;;;;;;;3.03;1.50;;;;;;;;;;5021770;28;20034;-59
2021/03/28 14:18:06;;;;;;;2.42;1.20;;;;;;;;;;5015147;28;20048;-59
2021/03/28 14:20:35;;;;;;;1.85;1.30;;;;;;;;;;5005594;28;20030;-59
2021/03/28 14:23:13;;;;;;;2.53;1.20;;;;;;;;;;5017253;28;20798;-59
2021/03/28 14:25:54;;;;;;;4.43;1.30;;;;;;;;;;5018465;28;20048;-60
2021/03/28 14:28:27;;;;;;;3.20;1.25;;;;;;;;;;5023097;28;20049;-60
2021/03/28 14:31:04;;;;;;;4.07;1.30;;;;;;;;;;5023415;28;20051;-59
2021/03/28 14:33:42;;;;;;;2.63;1.40;;;;;;;;;;5023770;28;20116;-59
2021/03/28 14:36:24;;;;;;;1.92;1.27;;;;;;;;;;5018765;28;20040;-59
2021/03/28 14:38:58;;;;;;;2.08;1.30;;;;;;;;;;5026179;28;20033;-59
2021/03/28 14:41:51;;;;;;;3.92;1.60;;;;;;;;;;5028047;28;20048;-59
2021/03/28 14:44:18;;;;;;;2.97;1.55;;;;;;;;;;4996567;28;20029;-59
2021/03/28 14:47:08;;;;;;;4.20;2.13;;;;;;;;;;5028213;28;20021;-59
2021/03/28 14:49:35;;;;;;;3.72;1.60;;;;;;;;;;5011888;28;20452;-59
2021/03/28 14:52:23;;;;;;;4.97;1.60;;;;;;;;;;4995045;28;20026;-59
2021/03/28 14:55:28;;;;;;;6.30;2.00;;;;;;;;;;5021238;28;20506;-59
2021/03/28 14:58:02;;;;;;;9.75;2.25;;;;;;;;;;4966727;28;20181;-59
2021/03/28 15:00:38;;;;;;;10.43;2.53;;;;;;;;;;4965475;28;20031;-59
2021/03/28 15:03:23;;;;;;;9.43;2.42;;;;;;;;;;4999637;28;20048;-59
2021/03/28 15:06:11;;;;;;;9.25;2.35;;;;;;;;;;5024677;28;20108;-59
2021/03/28 15:08:45;;;;;;;9.07;2.42;;;;;;;;;;5003080;28;20115;-59
2021/03/28 15:11:24;;;;;;;18.30;2.88;;;;;;;;;;4991854;28;20022;-59
2021/03/28 15:14:09;;;;;;;11.75;3.00;;;;;;;;;;4997707;28;20101;-60
2021/03/28 15:16:45;;;;;;;8.65;2.80;;;;;;;;;;5007182;28;20053;-59
2021/03/28 15:19:16;;;;;;;7.45;2.67;;;;;;;;;;5001840;28;20026;-59
2021/03/28 15:22:06;;;;;;;9.10;2.72;;;;;;;;;;5000927;28;20026;-59
2021/03/28 15:24:38;;;;;;;8.38;2.40;;;;;;;;;;4986410;28;20031;-59
2021/03/28 15:27:15;;;;;;;8.30;2.22;;;;;;;;;;4993397;28;20389;-59
2021/03/28 15:29:48;;;;;;;9.45;2.78;;;;;;;;;;4993364;28;20109;-59
2021/03/28 15:32:30;;;;;;;13.40;2.60;;;;;;;;;;4994268;28;20033;-59
2021/03/28 15:35:06;;;;;;;9.55;2.30;;;;;;;;;;4998981;28;20444;-59
2021/03/28 15:37:35;;;;;;;15.13;2.85;;;;;;;;;;4998873;28;20385;-59